sensor_id;sensor_type;location;lat;lon;timestamp;P1;durP1;ratioP1;P2;durP2;ratioP2
48847;SDS011;36611;51.638;5.784;2022-10-31T00:01:51;12.40;;;9.48;;
48847;SDS011;36611;51.638;5.784;2022-10-31T00:04:22;16.73;;;9.07;;
48847;SDS011;36611;51.638;5.784;2022-10-31T00:06:49;13.63;;;9.60;;
48847;SDS011;36611;51.638;5.784;2022-10-31T00:09:15;13.32;;;9.23;;
48847;SDS011;36611;51.638;5.784;2022-10-31T00:11:42;16.90;;;9.90;;
48847;SDS011;36611;51.638;5.784;2022-10-31T00:14:13;14.50;;;9.45;;
48847;SDS011;36611;51.638;5.784;2022-10-31T00:16:40;15.63;;;9.43;;
48847;SDS011;36611;51.638;5.784;2022-10-31T00:19:08;17.80;;;10.10;;
48847;SDS011;36611;51.638;5.784;2022-10-31T00:21:34;15.75;;;10.00;;
48847;SDS011;36611;51.638;5.784;2022-10-31T00:24:01;13.93;;;9.32;;
48847;SDS011;36611;51.638;5.784;2022-10-31T00:26:31;13.25;;;9.85;;
48847;SDS011;36611;51.638;5.784;2022-10-31T00:28:58;12.80;;;9.75;;
48847;SDS011;36611;51.638;5.784;2022-10-31T00:31:25;16.27;;;10.20;;
48847;SDS011;36611;51.638;5.784;2022-10-31T00:33:52;15.80;;;10.13;;
48847;SDS011;36611;51.638;5.784;2022-10-31T00:36:21;15.45;;;9.23;;
48847;SDS011;36611;51.638;5.784;2022-10-31T00:38:47;18.48;;;10.18;;
48847;SDS011;36611;51.638;5.784;2022-10-31T00:41:15;13.20;;;8.77;;
48847;SDS011;36611;51.638;5.784;2022-10-31T00:43:43;14.07;;;10.13;;
48847;SDS011;36611;51.638;5.784;2022-10-31T00:46:10;21.80;;;11.00;;
48847;SDS011;36611;51.638;5.784;2022-10-31T00:48:37;19.63;;;10.90;;
48847;SDS011;36611;51.638;5.784;2022-10-31T00:51:03;19.50;;;11.48;;
48847;SDS011;36611;51.638;5.784;2022-10-31T00:53:31;12.98;;;10.38;;
48847;SDS011;36611;51.638;5.784;2022-10-31T00:56:02;13.23;;;9.35;;
48847;SDS011;36611;51.638;5.784;2022-10-31T00:58:29;16.08;;;9.93;;
48847;SDS011;36611;51.638;5.784;2022-10-31T01:00:56;16.40;;;9.90;;
48847;SDS011;36611;51.638;5.784;2022-10-31T01:03:23;14.35;;;9.55;;
48847;SDS011;36611;51.638;5.784;2022-10-31T01:06:01;12.65;;;9.57;;
48847;SDS011;36611;51.638;5.784;2022-10-31T01:08:31;14.35;;;8.73;;
48847;SDS011;36611;51.638;5.784;2022-10-31T01:11:02;11.00;;;8.52;;
48847;SDS011;36611;51.638;5.784;2022-10-31T01:13:43;12.57;;;9.00;;
48847;SDS011;36611;51.638;5.784;2022-10-31T01:16:16;13.57;;;10.30;;
48847;SDS011;36611;51.638;5.784;2022-10-31T01:18:44;12.18;;;9.55;;
48847;SDS011;36611;51.638;5.784;2022-10-31T01:21:22;16.98;;;10.63;;
48847;SDS011;36611;51.638;5.784;2022-10-31T01:23:50;17.58;;;11.10;;
48847;SDS011;36611;51.638;5.784;2022-10-31T01:26:22;16.70;;;11.55;;
48847;SDS011;36611;51.638;5.784;2022-10-31T01:31:28;20.50;;;11.48;;
48847;SDS011;36611;51.638;5.784;2022-10-31T01:33:56;22.60;;;11.70;;
48847;SDS011;36611;51.638;5.784;2022-10-31T01:36:39;13.98;;;10.73;;
48847;SDS011;36611;51.638;5.784;2022-10-31T01:39:07;15.00;;;10.70;;
48847;SDS011;36611;51.638;5.784;2022-10-31T01:41:39;16.77;;;10.18;;
48847;SDS011;36611;51.638;5.784;2022-10-31T01:46:49;16.77;;;11.50;;
48847;SDS011;36611;51.638;5.784;2022-10-31T01:49:17;16.08;;;10.30;;
48847;SDS011;36611;51.638;5.784;2022-10-31T01:51:48;13.05;;;9.70;;
48847;SDS011;36611;51.638;5.784;2022-10-31T01:54:24;11.73;;;9.50;;
48847;SDS011;36611;51.638;5.784;2022-10-31T01:56:54;13.88;;;9.52;;
48847;SDS011;36611;51.638;5.784;2022-10-31T01:59:23;11.10;;;8.57;;
48847;SDS011;36611;51.638;5.784;2022-10-31T02:01:56;12.80;;;8.35;;
48847;SDS011;36611;51.638;5.784;2022-10-31T02:04:24;13.80;;;8.50;;
48847;SDS011;36611;51.638;5.784;2022-10-31T02:06:59;12.73;;;8.50;;
48847;SDS011;36611;51.638;5.784;2022-10-31T02:09:36;13.77;;;8.95;;
48847;SDS011;36611;51.638;5.784;2022-10-31T02:12:03;11.95;;;9.05;;
48847;SDS011;36611;51.638;5.784;2022-10-31T02:14:31;11.88;;;8.35;;
48847;SDS011;36611;51.638;5.784;2022-10-31T02:16:59;13.10;;;8.93;;
48847;SDS011;36611;51.638;5.784;2022-10-31T02:21:55;13.70;;;9.73;;
48847;SDS011;36611;51.638;5.784;2022-10-31T02:32:42;13.73;;;10.07;;
48847;SDS011;36611;51.638;5.784;2022-10-31T02:35:24;13.23;;;8.63;;
48847;SDS011;36611;51.638;5.784;2022-10-31T02:40:44;17.00;;;11.63;;
48847;SDS011;36611;51.638;5.784;2022-10-31T02:46:32;14.10;;;10.02;;
48847;SDS011;36611;51.638;5.784;2022-10-31T02:49:26;15.57;;;10.95;;
48847;SDS011;36611;51.638;5.784;2022-10-31T02:51:58;16.20;;;10.05;;
48847;SDS011;36611;51.638;5.784;2022-10-31T02:54:28;14.20;;;9.88;;
48847;SDS011;36611;51.638;5.784;2022-10-31T02:57:02;15.50;;;10.05;;
48847;SDS011;36611;51.638;5.784;2022-10-31T02:59:33;13.48;;;9.98;;
48847;SDS011;36611;51.638;5.784;2022-10-31T03:02:05;16.60;;;9.88;;
48847;SDS011;36611;51.638;5.784;2022-10-31T03:13:20;15.35;;;10.05;;
48847;SDS011;36611;51.638;5.784;2022-10-31T03:19:11;16.02;;;10.75;;
48847;SDS011;36611;51.638;5.784;2022-10-31T03:24:13;15.27;;;10.25;;
48847;SDS011;36611;51.638;5.784;2022-10-31T03:26:42;13.80;;;10.18;;
48847;SDS011;36611;51.638;5.784;2022-10-31T03:29:15;12.93;;;10.00;;
48847;SDS011;36611;51.638;5.784;2022-10-31T03:31:52;11.88;;;10.10;;
48847;SDS011;36611;51.638;5.784;2022-10-31T03:34:27;18.08;;;11.02;;
48847;SDS011;36611;51.638;5.784;2022-10-31T03:36:57;17.25;;;10.60;;
48847;SDS011;36611;51.638;5.784;2022-10-31T03:39:27;9.63;;;7.53;;
48847;SDS011;36611;51.638;5.784;2022-10-31T03:42:05;7.28;;;5.78;;
48847;SDS011;36611;51.638;5.784;2022-10-31T03:44:41;9.13;;;5.53;;
48847;SDS011;36611;51.638;5.784;2022-10-31T03:47:12;10.13;;;7.10;;
48847;SDS011;36611;51.638;5.784;2022-10-31T03:49:39;11.57;;;8.48;;
48847;SDS011;36611;51.638;5.784;2022-10-31T03:55:07;13.32;;;8.52;;
48847;SDS011;36611;51.638;5.784;2022-10-31T04:00:34;11.38;;;8.80;;
48847;SDS011;36611;51.638;5.784;2022-10-31T04:03:07;14.48;;;10.73;;
48847;SDS011;36611;51.638;5.784;2022-10-31T04:05:47;15.07;;;10.40;;
48847;SDS011;36611;51.638;5.784;2022-10-31T04:08:19;11.00;;;8.23;;
48847;SDS011;36611;51.638;5.784;2022-10-31T04:10:49;10.10;;;7.88;;
48847;SDS011;36611;51.638;5.784;2022-10-31T04:13:20;11.00;;;9.00;;
48847;SDS011;36611;51.638;5.784;2022-10-31T04:16:02;13.15;;;9.32;;
48847;SDS011;36611;51.638;5.784;2022-10-31T04:18:31;13.93;;;10.07;;
48847;SDS011;36611;51.638;5.784;2022-10-31T04:21:05;13.32;;;9.20;;
48847;SDS011;36611;51.638;5.784;2022-10-31T04:23:33;14.52;;;9.88;;
48847;SDS011;36611;51.638;5.784;2022-10-31T04:26:13;14.00;;;9.88;;
48847;SDS011;36611;51.638;5.784;2022-10-31T04:28:42;13.20;;;10.55;;
48847;SDS011;36611;51.638;5.784;2022-10-31T04:31:11;13.95;;;10.48;;
48847;SDS011;36611;51.638;5.784;2022-10-31T04:33:38;13.80;;;10.25;;
48847;SDS011;36611;51.638;5.784;2022-10-31T04:36:06;14.02;;;10.68;;
48847;SDS011;36611;51.638;5.784;2022-10-31T04:38:33;13.90;;;10.45;;
48847;SDS011;36611;51.638;5.784;2022-10-31T04:41:02;15.38;;;9.98;;
48847;SDS011;36611;51.638;5.784;2022-10-31T04:43:48;16.30;;;10.27;;
48847;SDS011;36611;51.638;5.784;2022-10-31T04:46:15;16.38;;;11.00;;
48847;SDS011;36611;51.638;5.784;2022-10-31T04:48:42;14.98;;;10.10;;
48847;SDS011;36611;51.638;5.784;2022-10-31T04:51:09;16.02;;;11.32;;
48847;SDS011;36611;51.638;5.784;2022-10-31T04:53:36;18.27;;;11.38;;
48847;SDS011;36611;51.638;5.784;2022-10-31T04:56:30;15.32;;;10.70;;
48847;SDS011;36611;51.638;5.784;2022-10-31T04:59:04;13.45;;;9.57;;
48847;SDS011;36611;51.638;5.784;2022-10-31T05:01:43;31.45;;;11.23;;
48847;SDS011;36611;51.638;5.784;2022-10-31T05:04:13;12.57;;;10.63;;
48847;SDS011;36611;51.638;5.784;2022-10-31T05:06:40;16.92;;;10.80;;
48847;SDS011;36611;51.638;5.784;2022-10-31T05:09:07;14.60;;;10.55;;
48847;SDS011;36611;51.638;5.784;2022-10-31T05:11:34;14.18;;;10.63;;
48847;SDS011;36611;51.638;5.784;2022-10-31T05:14:20;14.45;;;10.40;;
48847;SDS011;36611;51.638;5.784;2022-10-31T05:17:21;16.60;;;9.03;;
48847;SDS011;36611;51.638;5.784;2022-10-31T05:20:06;52.13;;;10.18;;
48847;SDS011;36611;51.638;5.784;2022-10-31T05:22:53;9.63;;;7.72;;
48847;SDS011;36611;51.638;5.784;2022-10-31T05:25:25;10.13;;;8.13;;
48847;SDS011;36611;51.638;5.784;2022-10-31T05:27:53;10.43;;;7.60;;
48847;SDS011;36611;51.638;5.784;2022-10-31T05:30:22;10.05;;;7.97;;
48847;SDS011;36611;51.638;5.784;2022-10-31T05:32:51;10.35;;;7.70;;
48847;SDS011;36611;51.638;5.784;2022-10-31T05:35:41;11.13;;;8.18;;
48847;SDS011;36611;51.638;5.784;2022-10-31T05:41:18;11.73;;;8.93;;
48847;SDS011;36611;51.638;5.784;2022-10-31T05:43:46;16.85;;;9.88;;
48847;SDS011;36611;51.638;5.784;2022-10-31T05:49:26;14.63;;;9.50;;
48847;SDS011;36611;51.638;5.784;2022-10-31T05:52:24;12.40;;;8.45;;
48847;SDS011;36611;51.638;5.784;2022-10-31T05:55:02;10.05;;;8.52;;
48847;SDS011;36611;51.638;5.784;2022-10-31T05:57:29;12.65;;;9.60;;
48847;SDS011;36611;51.638;5.784;2022-10-31T05:59:58;14.02;;;9.73;;
48847;SDS011;36611;51.638;5.784;2022-10-31T06:02:25;16.13;;;10.07;;
48847;SDS011;36611;51.638;5.784;2022-10-31T06:05:17;12.52;;;9.25;;
48847;SDS011;36611;51.638;5.784;2022-10-31T06:07:45;20.73;;;12.05;;
48847;SDS011;36611;51.638;5.784;2022-10-31T06:10:11;12.35;;;10.55;;
48847;SDS011;36611;51.638;5.784;2022-10-31T06:12:38;15.38;;;9.73;;
48847;SDS011;36611;51.638;5.784;2022-10-31T06:15:19;14.13;;;9.48;;
48847;SDS011;36611;51.638;5.784;2022-10-31T06:18:00;15.57;;;9.07;;
48847;SDS011;36611;51.638;5.784;2022-10-31T06:20:33;12.30;;;8.43;;
48847;SDS011;36611;51.638;5.784;2022-10-31T06:23:02;10.07;;;7.90;;
48847;SDS011;36611;51.638;5.784;2022-10-31T06:25:31;9.45;;;7.65;;
48847;SDS011;36611;51.638;5.784;2022-10-31T06:27:59;8.27;;;7.32;;
48847;SDS011;36611;51.638;5.784;2022-10-31T06:30:35;10.27;;;6.32;;
48847;SDS011;36611;51.638;5.784;2022-10-31T06:33:03;8.57;;;6.80;;
48847;SDS011;36611;51.638;5.784;2022-10-31T06:35:32;22.27;;;9.60;;
48847;SDS011;36611;51.638;5.784;2022-10-31T06:37:59;13.82;;;8.95;;
48847;SDS011;36611;51.638;5.784;2022-10-31T06:40:34;12.57;;;9.27;;
48847;SDS011;36611;51.638;5.784;2022-10-31T06:43:30;12.57;;;9.35;;
48847;SDS011;36611;51.638;5.784;2022-10-31T06:46:21;12.43;;;9.35;;
48847;SDS011;36611;51.638;5.784;2022-10-31T06:49:04;12.38;;;9.05;;
48847;SDS011;36611;51.638;5.784;2022-10-31T06:51:37;13.45;;;9.73;;
48847;SDS011;36611;51.638;5.784;2022-10-31T06:56:36;12.50;;;10.10;;
48847;SDS011;36611;51.638;5.784;2022-10-31T06:59:03;16.02;;;11.10;;
48847;SDS011;36611;51.638;5.784;2022-10-31T07:01:50;13.15;;;10.20;;
48847;SDS011;36611;51.638;5.784;2022-10-31T07:04:21;14.57;;;10.68;;
48847;SDS011;36611;51.638;5.784;2022-10-31T07:06:50;12.10;;;10.10;;
48847;SDS011;36611;51.638;5.784;2022-10-31T07:09:18;12.43;;;10.10;;
48847;SDS011;36611;51.638;5.784;2022-10-31T07:11:45;16.13;;;9.98;;
48847;SDS011;36611;51.638;5.784;2022-10-31T07:14:13;13.65;;;9.93;;
48847;SDS011;36611;51.638;5.784;2022-10-31T07:16:40;13.93;;;9.77;;
48847;SDS011;36611;51.638;5.784;2022-10-31T07:19:08;12.15;;;8.82;;
48847;SDS011;36611;51.638;5.784;2022-10-31T07:21:34;11.18;;;8.60;;
48847;SDS011;36611;51.638;5.784;2022-10-31T07:24:01;12.07;;;9.30;;
48847;SDS011;36611;51.638;5.784;2022-10-31T07:26:56;16.35;;;11.63;;
48847;SDS011;36611;51.638;5.784;2022-10-31T07:29:28;17.63;;;10.98;;
48847;SDS011;36611;51.638;5.784;2022-10-31T07:31:54;17.88;;;10.65;;
48847;SDS011;36611;51.638;5.784;2022-10-31T07:34:29;15.35;;;11.10;;
48847;SDS011;36611;51.638;5.784;2022-10-31T07:37:18;16.58;;;11.85;;
48847;SDS011;36611;51.638;5.784;2022-10-31T07:39:45;18.42;;;11.73;;
48847;SDS011;36611;51.638;5.784;2022-10-31T07:42:11;18.67;;;12.38;;
48847;SDS011;36611;51.638;5.784;2022-10-31T07:44:46;16.75;;;11.77;;
48847;SDS011;36611;51.638;5.784;2022-10-31T07:50:57;20.15;;;13.27;;
48847;SDS011;36611;51.638;5.784;2022-10-31T07:53:42;20.70;;;14.38;;
48847;SDS011;36611;51.638;5.784;2022-10-31T07:56:24;27.48;;;17.42;;
48847;SDS011;36611;51.638;5.784;2022-10-31T07:58:51;25.95;;;16.60;;
48847;SDS011;36611;51.638;5.784;2022-10-31T08:01:17;26.83;;;16.73;;
48847;SDS011;36611;51.638;5.784;2022-10-31T08:03:57;22.70;;;15.02;;
48847;SDS011;36611;51.638;5.784;2022-10-31T08:06:44;20.40;;;13.93;;
48847;SDS011;36611;51.638;5.784;2022-10-31T08:09:23;22.48;;;12.75;;
48847;SDS011;36611;51.638;5.784;2022-10-31T08:11:52;20.92;;;13.95;;
48847;SDS011;36611;51.638;5.784;2022-10-31T08:14:20;25.05;;;18.25;;
48847;SDS011;36611;51.638;5.784;2022-10-31T08:16:51;27.08;;;16.00;;
48847;SDS011;36611;51.638;5.784;2022-10-31T08:19:19;27.35;;;18.60;;
48847;SDS011;36611;51.638;5.784;2022-10-31T08:21:46;27.58;;;19.13;;
48847;SDS011;36611;51.638;5.784;2022-10-31T08:24:16;28.90;;;19.80;;
48847;SDS011;36611;51.638;5.784;2022-10-31T08:26:43;29.00;;;21.15;;
48847;SDS011;36611;51.638;5.784;2022-10-31T08:29:11;30.67;;;20.80;;
48847;SDS011;36611;51.638;5.784;2022-10-31T08:31:39;31.35;;;20.02;;
48847;SDS011;36611;51.638;5.784;2022-10-31T08:34:32;44.45;;;24.20;;
48847;SDS011;36611;51.638;5.784;2022-10-31T08:37:28;28.20;;;20.88;;
48847;SDS011;36611;51.638;5.784;2022-10-31T08:39:55;27.88;;;19.20;;
48847;SDS011;36611;51.638;5.784;2022-10-31T08:42:21;26.25;;;18.67;;
48847;SDS011;36611;51.638;5.784;2022-10-31T08:44:52;27.63;;;19.10;;
48847;SDS011;36611;51.638;5.784;2022-10-31T08:47:20;27.88;;;18.77;;
48847;SDS011;36611;51.638;5.784;2022-10-31T08:49:47;24.27;;;18.77;;
48847;SDS011;36611;51.638;5.784;2022-10-31T08:52:14;26.33;;;17.58;;
48847;SDS011;36611;51.638;5.784;2022-10-31T08:54:44;27.98;;;19.17;;
48847;SDS011;36611;51.638;5.784;2022-10-31T08:57:28;23.80;;;18.25;;
48847;SDS011;36611;51.638;5.784;2022-10-31T08:59:57;30.35;;;19.05;;
48847;SDS011;36611;51.638;5.784;2022-10-31T09:02:30;30.13;;;18.70;;
48847;SDS011;36611;51.638;5.784;2022-10-31T09:04:59;24.98;;;18.83;;
48847;SDS011;36611;51.638;5.784;2022-10-31T09:07:26;26.30;;;18.60;;
48847;SDS011;36611;51.638;5.784;2022-10-31T09:09:53;30.58;;;19.08;;
48847;SDS011;36611;51.638;5.784;2022-10-31T09:12:19;28.58;;;19.13;;
48847;SDS011;36611;51.638;5.784;2022-10-31T09:15:13;30.13;;;20.20;;
48847;SDS011;36611;51.638;5.784;2022-10-31T09:17:48;27.38;;;19.70;;
48847;SDS011;36611;51.638;5.784;2022-10-31T09:20:37;30.27;;;19.95;;
48847;SDS011;36611;51.638;5.784;2022-10-31T09:23:06;33.22;;;20.38;;
48847;SDS011;36611;51.638;5.784;2022-10-31T09:25:38;28.05;;;19.90;;
48847;SDS011;36611;51.638;5.784;2022-10-31T09:28:26;27.38;;;19.60;;
48847;SDS011;36611;51.638;5.784;2022-10-31T09:30:56;29.20;;;20.63;;
48847;SDS011;36611;51.638;5.784;2022-10-31T09:33:42;26.83;;;18.95;;
48847;SDS011;36611;51.638;5.784;2022-10-31T09:36:27;34.80;;;19.83;;
48847;SDS011;36611;51.638;5.784;2022-10-31T09:38:54;25.13;;;19.15;;
48847;SDS011;36611;51.638;5.784;2022-10-31T09:44:39;28.88;;;19.92;;
48847;SDS011;36611;51.638;5.784;2022-10-31T09:56:39;30.27;;;20.77;;
48847;SDS011;36611;51.638;5.784;2022-10-31T09:59:10;30.83;;;20.00;;
48847;SDS011;36611;51.638;5.784;2022-10-31T10:01:50;30.92;;;20.33;;
48847;SDS011;36611;51.638;5.784;2022-10-31T10:19:08;34.65;;;21.05;;
48847;SDS011;36611;51.638;5.784;2022-10-31T10:24:41;31.13;;;20.85;;
48847;SDS011;36611;51.638;5.784;2022-10-31T10:27:35;30.65;;;20.52;;
48847;SDS011;36611;51.638;5.784;2022-10-31T10:32:43;32.30;;;20.45;;
48847;SDS011;36611;51.638;5.784;2022-10-31T10:38:39;33.78;;;19.85;;
48847;SDS011;36611;51.638;5.784;2022-10-31T10:41:41;30.55;;;18.98;;
48847;SDS011;36611;51.638;5.784;2022-10-31T10:44:17;29.70;;;19.20;;
48847;SDS011;36611;51.638;5.784;2022-10-31T10:46:48;29.55;;;18.70;;
48847;SDS011;36611;51.638;5.784;2022-10-31T10:52:24;27.05;;;19.25;;
48847;SDS011;36611;51.638;5.784;2022-10-31T10:58:00;28.95;;;19.10;;
48847;SDS011;36611;51.638;5.784;2022-10-31T11:02:58;28.75;;;19.13;;
48847;SDS011;36611;51.638;5.784;2022-10-31T11:05:42;32.70;;;20.23;;
48847;SDS011;36611;51.638;5.784;2022-10-31T11:11:03;31.05;;;19.45;;
48847;SDS011;36611;51.638;5.784;2022-10-31T11:13:30;27.38;;;18.50;;
48847;SDS011;36611;51.638;5.784;2022-10-31T11:16:13;28.73;;;18.42;;
48847;SDS011;36611;51.638;5.784;2022-10-31T11:18:54;32.80;;;18.90;;
48847;SDS011;36611;51.638;5.784;2022-10-31T11:21:53;28.85;;;18.58;;
48847;SDS011;36611;51.638;5.784;2022-10-31T11:24:21;30.60;;;18.67;;
48847;SDS011;36611;51.638;5.784;2022-10-31T11:26:50;28.55;;;18.30;;
48847;SDS011;36611;51.638;5.784;2022-10-31T11:29:23;31.48;;;19.30;;
48847;SDS011;36611;51.638;5.784;2022-10-31T11:31:52;29.38;;;18.58;;
48847;SDS011;36611;51.638;5.784;2022-10-31T11:36:54;25.95;;;17.63;;
48847;SDS011;36611;51.638;5.784;2022-10-31T11:39:28;28.70;;;17.25;;
48847;SDS011;36611;51.638;5.784;2022-10-31T11:41:54;29.30;;;17.98;;
48847;SDS011;36611;51.638;5.784;2022-10-31T11:44:35;28.10;;;18.42;;
48847;SDS011;36611;51.638;5.784;2022-10-31T11:47:09;28.25;;;17.58;;
48847;SDS011;36611;51.638;5.784;2022-10-31T11:49:42;30.58;;;19.27;;
48847;SDS011;36611;51.638;5.784;2022-10-31T11:52:15;31.45;;;17.70;;
48847;SDS011;36611;51.638;5.784;2022-10-31T11:57:28;29.52;;;17.63;;
48847;SDS011;36611;51.638;5.784;2022-10-31T11:59:58;28.38;;;17.70;;
48847;SDS011;36611;51.638;5.784;2022-10-31T12:02:26;27.08;;;17.10;;
48847;SDS011;36611;51.638;5.784;2022-10-31T12:07:37;27.58;;;16.67;;
48847;SDS011;36611;51.638;5.784;2022-10-31T12:10:10;27.17;;;16.30;;
48847;SDS011;36611;51.638;5.784;2022-10-31T12:15:36;25.30;;;15.90;;
48847;SDS011;36611;51.638;5.784;2022-10-31T12:23:32;25.50;;;15.68;;
48847;SDS011;36611;51.638;5.784;2022-10-31T12:31:46;23.17;;;14.73;;
48847;SDS011;36611;51.638;5.784;2022-10-31T12:45:35;21.50;;;14.32;;
48847;SDS011;36611;51.638;5.784;2022-10-31T12:48:06;21.90;;;12.68;;
48847;SDS011;36611;51.638;5.784;2022-10-31T12:53:40;19.77;;;12.30;;
48847;SDS011;36611;51.638;5.784;2022-10-31T12:56:41;18.90;;;12.10;;
48847;SDS011;36611;51.638;5.784;2022-10-31T12:59:40;22.27;;;12.50;;
48847;SDS011;36611;51.638;5.784;2022-10-31T13:07:37;18.27;;;12.52;;
48847;SDS011;36611;51.638;5.784;2022-10-31T13:13:12;20.95;;;12.57;;
48847;SDS011;36611;51.638;5.784;2022-10-31T13:15:49;22.52;;;12.73;;
48847;SDS011;36611;51.638;5.784;2022-10-31T13:18:43;18.05;;;11.82;;
48847;SDS011;36611;51.638;5.784;2022-10-31T13:21:34;20.38;;;11.93;;
48847;SDS011;36611;51.638;5.784;2022-10-31T13:24:22;21.88;;;11.82;;
48847;SDS011;36611;51.638;5.784;2022-10-31T13:27:01;27.00;;;13.32;;
48847;SDS011;36611;51.638;5.784;2022-10-31T13:29:36;18.35;;;11.93;;
48847;SDS011;36611;51.638;5.784;2022-10-31T13:32:09;19.08;;;13.50;;
48847;SDS011;36611;51.638;5.784;2022-10-31T13:34:42;18.50;;;12.32;;
48847;SDS011;36611;51.638;5.784;2022-10-31T13:45:32;18.48;;;12.40;;
48847;SDS011;36611;51.638;5.784;2022-10-31T13:50:40;21.92;;;13.05;;
48847;SDS011;36611;51.638;5.784;2022-10-31T13:53:12;23.42;;;12.35;;
48847;SDS011;36611;51.638;5.784;2022-10-31T13:56:02;22.58;;;13.02;;
48847;SDS011;36611;51.638;5.784;2022-10-31T13:58:31;24.80;;;14.73;;
48847;SDS011;36611;51.638;5.784;2022-10-31T14:03:35;24.33;;;13.10;;
48847;SDS011;36611;51.638;5.784;2022-10-31T14:06:44;20.52;;;13.20;;
48847;SDS011;36611;51.638;5.784;2022-10-31T14:09:20;22.83;;;12.88;;
48847;SDS011;36611;51.638;5.784;2022-10-31T14:11:53;25.08;;;13.68;;
48847;SDS011;36611;51.638;5.784;2022-10-31T14:17:20;23.05;;;13.98;;
48847;SDS011;36611;51.638;5.784;2022-10-31T14:19:56;23.70;;;14.50;;
48847;SDS011;36611;51.638;5.784;2022-10-31T14:22:30;25.08;;;13.50;;
48847;SDS011;36611;51.638;5.784;2022-10-31T14:25:25;22.90;;;14.57;;
48847;SDS011;36611;51.638;5.784;2022-10-31T14:27:52;21.33;;;12.55;;
48847;SDS011;36611;51.638;5.784;2022-10-31T14:30:20;25.38;;;14.10;;
48847;SDS011;36611;51.638;5.784;2022-10-31T14:32:49;21.35;;;12.43;;
48847;SDS011;36611;51.638;5.784;2022-10-31T14:35:45;23.90;;;13.77;;
48847;SDS011;36611;51.638;5.784;2022-10-31T14:38:22;24.73;;;14.10;;
48847;SDS011;36611;51.638;5.784;2022-10-31T14:46:38;25.55;;;13.68;;
48847;SDS011;36611;51.638;5.784;2022-10-31T14:52:14;25.52;;;14.95;;
48847;SDS011;36611;51.638;5.784;2022-10-31T14:54:49;25.02;;;14.57;;
48847;SDS011;36611;51.638;5.784;2022-10-31T14:57:22;27.75;;;15.88;;
48847;SDS011;36611;51.638;5.784;2022-10-31T14:59:54;27.40;;;15.68;;
48847;SDS011;36611;51.638;5.784;2022-10-31T15:02:30;30.35;;;16.33;;
48847;SDS011;36611;51.638;5.784;2022-10-31T15:05:18;27.55;;;15.90;;
48847;SDS011;36611;51.638;5.784;2022-10-31T15:07:53;28.70;;;17.15;;
48847;SDS011;36611;51.638;5.784;2022-10-31T15:10:37;28.65;;;15.82;;
48847;SDS011;36611;51.638;5.784;2022-10-31T15:13:17;31.45;;;17.30;;
48847;SDS011;36611;51.638;5.784;2022-10-31T15:15:46;29.42;;;16.20;;
48847;SDS011;36611;51.638;5.784;2022-10-31T15:18:18;28.20;;;17.20;;
48847;SDS011;36611;51.638;5.784;2022-10-31T15:20:48;29.40;;;17.48;;
48847;SDS011;36611;51.638;5.784;2022-10-31T15:23:17;30.40;;;17.13;;
48847;SDS011;36611;51.638;5.784;2022-10-31T15:25:50;31.30;;;16.58;;
48847;SDS011;36611;51.638;5.784;2022-10-31T15:28:27;31.50;;;17.60;;
48847;SDS011;36611;51.638;5.784;2022-10-31T15:30:55;30.70;;;16.52;;
48847;SDS011;36611;51.638;5.784;2022-10-31T15:33:24;29.92;;;15.77;;
48847;SDS011;36611;51.638;5.784;2022-10-31T15:36:03;27.95;;;16.15;;
48847;SDS011;36611;51.638;5.784;2022-10-31T15:38:30;28.90;;;16.70;;
48847;SDS011;36611;51.638;5.784;2022-10-31T15:41:03;26.55;;;16.92;;
48847;SDS011;36611;51.638;5.784;2022-10-31T15:43:34;30.20;;;17.45;;
48847;SDS011;36611;51.638;5.784;2022-10-31T15:46:03;30.83;;;17.52;;
48847;SDS011;36611;51.638;5.784;2022-10-31T15:48:33;32.17;;;16.98;;
48847;SDS011;36611;51.638;5.784;2022-10-31T15:51:01;27.63;;;16.45;;
48847;SDS011;36611;51.638;5.784;2022-10-31T15:53:35;33.03;;;16.13;;
48847;SDS011;36611;51.638;5.784;2022-10-31T15:56:18;27.80;;;15.13;;
48847;SDS011;36611;51.638;5.784;2022-10-31T15:58:48;28.93;;;16.37;;
48847;SDS011;36611;51.638;5.784;2022-10-31T16:01:27;25.02;;;14.38;;
48847;SDS011;36611;51.638;5.784;2022-10-31T16:03:59;23.02;;;13.98;;
48847;SDS011;36611;51.638;5.784;2022-10-31T16:06:38;24.65;;;13.07;;
48847;SDS011;36611;51.638;5.784;2022-10-31T16:09:18;22.67;;;12.88;;
48847;SDS011;36611;51.638;5.784;2022-10-31T16:11:47;20.48;;;11.45;;
48847;SDS011;36611;51.638;5.784;2022-10-31T16:14:20;17.60;;;10.80;;
48847;SDS011;36611;51.638;5.784;2022-10-31T16:16:51;17.13;;;10.07;;
48847;SDS011;36611;51.638;5.784;2022-10-31T16:22:19;18.45;;;9.70;;
48847;SDS011;36611;51.638;5.784;2022-10-31T16:25:09;13.20;;;8.07;;
48847;SDS011;36611;51.638;5.784;2022-10-31T16:27:39;12.73;;;8.27;;
48847;SDS011;36611;51.638;5.784;2022-10-31T16:30:41;14.13;;;7.57;;
48847;SDS011;36611;51.638;5.784;2022-10-31T16:33:30;15.68;;;6.82;;
48847;SDS011;36611;51.638;5.784;2022-10-31T16:35:59;11.93;;;6.72;;
48847;SDS011;36611;51.638;5.784;2022-10-31T16:38:48;11.55;;;6.70;;
48847;SDS011;36611;51.638;5.784;2022-10-31T16:41:14;14.80;;;6.43;;
48847;SDS011;36611;51.638;5.784;2022-10-31T16:43:41;10.73;;;6.30;;
48847;SDS011;36611;51.638;5.784;2022-10-31T16:46:12;11.60;;;6.50;;
48847;SDS011;36611;51.638;5.784;2022-10-31T16:48:45;10.30;;;5.90;;
48847;SDS011;36611;51.638;5.784;2022-10-31T16:51:11;16.67;;;7.40;;
48847;SDS011;36611;51.638;5.784;2022-10-31T16:53:38;14.23;;;5.90;;
48847;SDS011;36611;51.638;5.784;2022-10-31T16:56:17;15.38;;;6.57;;
48847;SDS011;36611;51.638;5.784;2022-10-31T16:58:53;10.73;;;6.07;;
48847;SDS011;36611;51.638;5.784;2022-10-31T17:01:20;10.55;;;6.18;;
48847;SDS011;36611;51.638;5.784;2022-10-31T17:03:47;14.57;;;6.13;;
48847;SDS011;36611;51.638;5.784;2022-10-31T17:06:15;12.27;;;6.32;;
48847;SDS011;36611;51.638;5.784;2022-10-31T17:08:41;12.20;;;6.38;;
48847;SDS011;36611;51.638;5.784;2022-10-31T17:11:15;9.85;;;6.00;;
48847;SDS011;36611;51.638;5.784;2022-10-31T17:13:45;11.05;;;6.05;;
48847;SDS011;36611;51.638;5.784;2022-10-31T17:16:12;12.68;;;6.53;;
48847;SDS011;36611;51.638;5.784;2022-10-31T17:18:42;13.88;;;6.78;;
48847;SDS011;36611;51.638;5.784;2022-10-31T17:21:11;11.60;;;6.38;;
48847;SDS011;36611;51.638;5.784;2022-10-31T17:23:43;15.75;;;6.82;;
48847;SDS011;36611;51.638;5.784;2022-10-31T17:26:10;12.35;;;6.10;;
48847;SDS011;36611;51.638;5.784;2022-10-31T17:28:37;12.27;;;6.30;;
48847;SDS011;36611;51.638;5.784;2022-10-31T17:31:03;10.55;;;5.95;;
48847;SDS011;36611;51.638;5.784;2022-10-31T17:33:31;11.68;;;5.78;;
48847;SDS011;36611;51.638;5.784;2022-10-31T17:35:57;11.13;;;5.93;;
48847;SDS011;36611;51.638;5.784;2022-10-31T17:38:24;13.35;;;5.85;;
48847;SDS011;36611;51.638;5.784;2022-10-31T17:40:50;12.65;;;5.90;;
48847;SDS011;36611;51.638;5.784;2022-10-31T17:43:17;13.10;;;6.30;;
48847;SDS011;36611;51.638;5.784;2022-10-31T17:45:44;10.23;;;5.75;;
48847;SDS011;36611;51.638;5.784;2022-10-31T17:48:10;11.45;;;5.57;;
48847;SDS011;36611;51.638;5.784;2022-10-31T17:50:38;13.23;;;5.90;;
48847;SDS011;36611;51.638;5.784;2022-10-31T17:53:04;12.13;;;5.53;;
48847;SDS011;36611;51.638;5.784;2022-10-31T17:55:35;11.65;;;5.85;;
48847;SDS011;36611;51.638;5.784;2022-10-31T17:58:03;12.07;;;6.15;;